createdAt,value
2023-01-04T00:00:06.379Z,68.01
2023-01-04T00:05:09.986Z,67.08
2023-01-04T00:10:12.786Z,67.25
2023-01-04T00:15:16.954Z,67.32
2023-01-04T00:20:19.699Z,67.34
2023-01-04T00:25:22.448Z,68.01
2023-01-04T00:30:26.618Z,67.90
2023-01-04T00:35:45.357Z,67.72
2023-01-04T00:40:48.987Z,67.86
2023-01-04T00:45:53.717Z,68.23
2023-01-04T00:50:56.610Z,67.60
2023-01-04T00:56:02.500Z,67.79
2023-01-04T01:01:08.298Z,67.22
2023-01-04T01:06:12.267Z,67.75
2023-01-04T01:11:15.287Z,66.69
2023-01-04T01:16:44.388Z,66.30
2023-01-04T01:21:44.752Z,66.50
2023-01-04T01:26:47.627Z,66.41
2023-01-04T01:31:51.924Z,66.35
2023-01-04T01:36:54.821Z,66.13
2023-01-04T01:41:57.641Z,66.84
2023-01-04T01:47:02.422Z,66.51
2023-01-04T01:52:07.958Z,67.02
2023-01-04T01:57:15.161Z,66.75
2023-01-04T02:02:19.475Z,66.74
2023-01-04T02:07:25.734Z,66.29
2023-01-04T02:12:28.579Z,66.39
2023-01-04T02:17:39.746Z,66.96
2023-01-04T02:23:04.925Z,69.52
2023-01-04T02:28:17.616Z,71.69
2023-01-04T02:33:27.690Z,73.29
2023-01-04T02:38:39.172Z,75.58
2023-01-04T02:44:07.717Z,77.63
2023-01-04T02:49:29.438Z,78.13
2023-01-04T02:54:33.903Z,79.81
2023-01-04T02:59:51.659Z,81.20
2023-01-04T03:05:23.889Z,82.33
2023-01-04T03:10:36.930Z,83.77
2023-01-04T03:15:43.864Z,84.35
2023-01-04T03:20:50.473Z,84.71
2023-01-04T03:26:16.591Z,84.83
2023-01-04T03:31:41.965Z,86.11
2023-01-04T03:36:56.023Z,85.68
2023-01-04T03:42:23.036Z,86.89
2023-01-04T03:47:47.966Z,86.58
2023-01-04T03:52:54.490Z,86.33
2023-01-04T03:57:59.505Z,87.53
2023-01-04T04:03:08.148Z,86.01
2023-01-04T04:08:30.365Z,87.49
2023-01-04T04:13:33.166Z,86.74
2023-01-04T04:18:35.988Z,87.38
2023-01-04T04:23:40.098Z,87.75
2023-01-04T04:28:43.449Z,88.39
2023-01-04T04:33:46.231Z,87.61
2023-01-04T04:38:50.366Z,89.95
2023-01-04T04:43:53.765Z,87.24
2023-01-04T04:48:56.596Z,89.45
2023-01-04T04:54:01.115Z,89.75
2023-01-04T04:59:04.020Z,87.99
2023-01-04T05:04:07.368Z,89.76
2023-01-04T05:09:11.766Z,88.29
2023-01-04T05:14:14.952Z,89.08
2023-01-04T05:19:17.868Z,90.23
2023-01-04T05:24:22.115Z,89.63
2023-01-04T05:29:44.400Z,90.77
2023-01-04T05:34:47.125Z,90.98
2023-01-04T05:39:51.209Z,90.21
2023-01-04T05:44:54.727Z,91.83
2023-01-04T05:49:57.606Z,90.17
2023-01-04T05:55:02.074Z,89.05
2023-01-04T06:00:06.968Z,86.50
2023-01-04T06:05:15.766Z,87.07
2023-01-04T06:10:20.428Z,86.64
2023-01-04T06:15:23.238Z,87.75
2023-01-04T06:20:26.108Z,86.46
2023-01-04T06:25:30.217Z,84.75
2023-01-04T06:30:33.058Z,85.50
2023-01-04T06:35:36.065Z,85.49
2023-01-04T06:40:40.250Z,85.26
2023-01-04T06:45:43.563Z,85.47
2023-01-04T06:50:46.504Z,84.70
2023-01-04T06:55:50.676Z,85.53
2023-01-04T07:00:54.087Z,84.72
2023-01-04T07:05:56.840Z,86.46
2023-01-04T07:11:01.009Z,85.10
2023-01-04T07:16:03.800Z,84.28
2023-01-04T07:21:07.130Z,86.36
2023-01-04T07:26:11.231Z,85.33
2023-01-04T07:31:14.065Z,85.41
2023-01-04T07:36:16.860Z,84.52
2023-01-04T07:41:20.969Z,86.04
2023-01-04T07:46:23.786Z,86.07
2023-01-04T07:51:27.345Z,87.43
2023-01-04T07:56:31.475Z,89.21
2023-01-04T08:01:35.319Z,88.33
2023-01-04T08:06:39.863Z,87.54
2023-01-04T08:11:43.997Z,88.07
2023-01-04T08:16:46.800Z,100.00
2023-01-04T08:21:49.978Z,96.66
2023-01-04T08:26:54.218Z,97.06
2023-01-04T08:31:56.977Z,94.77
2023-01-04T08:36:59.799Z,95.34
2023-01-04T08:42:16.092Z,95.09
2023-01-04T08:47:23.474Z,94.84
2023-01-04T08:52:26.698Z,92.77
2023-01-04T08:57:30.804Z,93.62
2023-01-04T09:02:33.766Z,92.04
2023-01-04T09:07:36.719Z,92.36
2023-01-04T09:12:42.956Z,90.70
2023-01-04T09:18:05.128Z,90.30
2023-01-04T09:23:08.956Z,89.31
2023-01-04T09:28:13.142Z,92.45
2023-01-04T09:33:15.984Z,91.17
2023-01-04T09:38:18.727Z,92.17
2023-01-04T09:43:26.145Z,92.70
2023-01-04T09:48:32.799Z,91.18
2023-01-04T09:53:40.729Z,89.68
2023-01-04T09:58:45.364Z,93.80
2023-01-04T10:03:56.439Z,96.48
2023-01-04T10:09:03.705Z,94.62
2023-01-04T10:14:23.764Z,99.06
2023-01-04T10:25:18.763Z,97.55
2023-01-04T10:30:34.136Z,97.04
2023-01-04T10:35:37.098Z,96.11
2023-01-04T10:40:41.404Z,98.29
2023-01-04T10:45:55.061Z,97.55
2023-01-04T10:51:05.159Z,97.26
2023-01-04T10:56:25.751Z,98.41
2023-01-04T11:01:36.841Z,98.08
2023-01-04T11:06:44.515Z,99.39
2023-01-04T11:11:48.591Z,98.97
2023-01-04T11:16:56.554Z,97.85
2023-01-04T11:22:06.125Z,100.00
2023-01-04T11:27:20.875Z,100.00
2023-01-04T11:32:36.616Z,100.00
2023-01-04T11:37:41.559Z,100.00
2023-01-04T11:42:45.245Z,100.00
2023-01-04T11:47:52.165Z,100.00
2023-01-04T11:52:55.078Z,100.00
2023-01-04T11:58:08.004Z,100.00
2023-01-04T12:03:18.367Z,100.00
2023-01-04T12:11:34.755Z,100.00
2023-01-04T12:16:47.315Z,100.00
2023-01-04T12:21:52.525Z,99.84
2023-01-04T12:26:57.351Z,100.00
2023-01-04T12:32:33.281Z,100.00
2023-01-04T12:37:49.770Z,100.00
2023-01-04T12:43:24.644Z,100.00
2023-01-04T12:49:02.884Z,100.00
2023-01-04T12:54:06.530Z,100.00
2023-01-04T12:59:29.657Z,100.00
2023-01-04T13:04:41.318Z,100.00
2023-01-04T13:09:51.724Z,100.00
2023-01-04T13:15:04.121Z,100.00
2023-01-04T13:20:20.439Z,100.00
2023-01-04T13:25:25.286Z,100.00
2023-01-04T13:30:38.468Z,100.00
2023-01-04T13:35:41.306Z,100.00
2023-01-04T13:40:49.449Z,100.00
2023-01-04T13:46:06.898Z,100.00
2023-01-04T13:51:15.933Z,100.00
2023-01-04T13:56:21.620Z,100.00
2023-01-04T14:01:28.795Z,100.00
2023-01-04T14:06:34.174Z,100.00
2023-01-04T14:12:09.908Z,99.46
2023-01-04T14:17:23.241Z,98.56
2023-01-04T14:22:42.907Z,100.00
2023-01-04T14:27:45.801Z,100.00
2023-01-04T14:32:57.371Z,99.62
2023-01-04T14:38:04.453Z,96.80
2023-01-04T14:43:35.918Z,95.87
2023-01-04T14:48:40.203Z,94.61
2023-01-04T14:53:43.143Z,92.86
2023-01-04T14:58:46.337Z,90.75
2023-01-04T15:03:50.600Z,90.10
2023-01-04T15:08:53.466Z,89.21
2023-01-04T15:13:56.585Z,88.58
2023-01-04T15:19:00.851Z,89.09
2023-01-04T15:24:03.695Z,88.54
2023-01-04T15:29:08.367Z,90.13
2023-01-04T15:34:14.704Z,90.27
2023-01-04T15:39:17.566Z,90.06
2023-01-04T15:44:20.460Z,89.87
2023-01-04T15:49:24.705Z,89.16
2023-01-04T15:54:28.246Z,88.19
2023-01-04T15:59:31.235Z,88.08
2023-01-04T16:04:36.480Z,88.57
2023-01-04T16:09:39.345Z,86.58
2023-01-04T16:14:42.118Z,88.41
2023-01-04T16:19:46.423Z,87.79
2023-01-04T16:30:14.957Z,86.70
2023-01-04T16:35:19.341Z,87.13
2023-01-04T16:40:22.125Z,86.62
2023-01-04T16:45:24.892Z,84.85
2023-01-04T16:50:29.065Z,84.28
2023-01-04T16:55:31.957Z,84.07
2023-01-04T17:00:34.845Z,83.17
2023-01-04T17:05:41.436Z,83.29
2023-01-04T17:10:44.506Z,82.67
2023-01-04T17:15:47.283Z,81.87
2023-01-04T17:21:06.091Z,81.67
2023-01-04T17:26:20.623Z,81.04
2023-01-04T17:31:25.187Z,81.52
2023-01-04T17:36:29.714Z,80.61
2023-01-04T17:41:32.814Z,80.65
2023-01-04T17:46:39.022Z,80.01
2023-01-04T17:51:43.223Z,80.24
2023-01-04T17:56:46.062Z,79.63
2023-01-04T18:01:49.136Z,81.27
2023-01-04T18:06:53.393Z,80.05
2023-01-04T18:11:56.189Z,79.51
2023-01-04T18:16:59.328Z,79.63
2023-01-04T18:22:04.757Z,80.50
2023-01-04T18:27:25.254Z,79.99
2023-01-04T18:32:28.860Z,80.42
2023-01-04T18:37:33.028Z,80.38
2023-01-04T18:42:35.891Z,78.24
2023-01-04T18:47:38.659Z,78.29
2023-01-04T18:52:42.829Z,78.44
2023-01-04T18:57:45.604Z,77.59
2023-01-04T19:02:48.557Z,78.75
2023-01-04T19:07:52.909Z,77.56
2023-01-04T19:12:55.650Z,77.87
2023-01-04T19:17:58.422Z,78.15
2023-01-04T19:23:02.571Z,77.00
2023-01-04T19:28:06.407Z,78.08
2023-01-04T19:33:10.846Z,82.47
2023-01-04T19:38:16.396Z,88.32
2023-01-04T19:43:19.166Z,99.22
2023-01-04T19:48:23.659Z,100.00
2023-01-04T19:53:27.843Z,100.00
2023-01-04T19:58:31.077Z,100.00
2023-01-04T20:03:34.450Z,100.00
2023-01-04T20:08:39.114Z,100.00
2023-01-04T20:13:42.129Z,100.00
2023-01-04T20:18:44.925Z,100.00
2023-01-04T20:23:49.112Z,100.00
2023-01-04T20:28:52.037Z,100.00
2023-01-04T20:33:56.676Z,100.00
2023-01-04T20:39:02.924Z,100.00
2023-01-04T20:44:06.050Z,100.00
2023-01-04T20:49:09.568Z,100.00
2023-01-04T20:54:13.783Z,100.00
2023-01-04T20:59:16.572Z,100.00
2023-01-04T21:04:19.342Z,100.00
2023-01-04T21:09:23.528Z,99.84
2023-01-04T21:14:26.392Z,98.67
2023-01-04T21:19:29.320Z,98.28
2023-01-04T21:24:34.493Z,98.00
2023-01-04T21:29:37.393Z,97.18
2023-01-04T21:34:40.240Z,96.68
2023-01-04T21:39:44.612Z,96.23
2023-01-04T21:44:47.440Z,95.42
2023-01-04T21:49:50.844Z,93.36
2023-01-04T21:54:55.394Z,93.07
2023-01-04T21:59:58.157Z,92.32
2023-01-04T22:05:01.769Z,91.18
2023-01-04T22:10:06.766Z,90.65
2023-01-04T22:15:10.404Z,93.40
2023-01-04T22:20:13.157Z,93.37
2023-01-04T22:25:17.476Z,93.59
2023-01-04T22:30:20.265Z,92.62
2023-01-04T22:35:23.442Z,91.24
2023-01-04T22:40:27.584Z,90.01
2023-01-04T22:45:30.581Z,89.84
2023-01-04T22:50:33.329Z,91.31
2023-01-04T22:56:17.111Z,97.60
2023-01-04T23:01:04.907Z,99.79
2023-01-04T23:06:08.465Z,97.11
2023-01-04T23:11:15.653Z,97.18
2023-01-04T23:16:18.777Z,98.72
2023-01-04T23:21:21.571Z,97.96
2023-01-04T23:26:27.364Z,96.68
2023-01-04T23:31:32.760Z,97.14
2023-01-04T23:36:37.283Z,97.66
2023-01-04T23:41:47.991Z,96.87
2023-01-04T23:46:53.564Z,94.80
2023-01-04T23:51:57.555Z,93.99
2023-01-04T23:57:03.776Z,93.30
